createdAt,value
2017-09-01T00:00:43.807Z,6.30
2017-09-01T00:03:13.417Z,5.50
2017-09-01T00:05:42.994Z,7.37
2017-09-01T00:08:12.625Z,6.53
2017-09-01T00:16:32.090Z,7.17
2017-09-01T00:19:01.662Z,5.40
2017-09-01T00:21:31.307Z,5.97
2017-09-01T00:26:56.012Z,4.20
2017-09-01T00:32:20.567Z,4.43
2017-09-01T00:34:50.144Z,4.20
2017-09-01T00:37:19.790Z,3.60
2017-09-01T00:42:44.505Z,3.10
2017-09-01T00:48:08.690Z,4.20
2017-09-01T00:50:38.273Z,3.20
2017-09-01T00:56:02.820Z,6.93
2017-09-01T01:01:27.162Z,5.90
2017-09-01T01:03:56.746Z,5.70
2017-09-01T01:09:11.227Z,4.30
2017-09-01T01:11:40.803Z,4.00
2017-09-01T01:14:10.453Z,3.57
2017-09-01T01:16:40.041Z,3.20
2017-09-01T01:19:09.703Z,3.10
2017-09-01T01:24:34.609Z,3.30
2017-09-01T01:29:59.225Z,4.60
2017-09-01T01:32:28.815Z,5.77
2017-09-01T01:37:53.255Z,5.10
2017-09-01T01:43:17.530Z,4.60
2017-09-01T01:45:47.095Z,4.73
2017-09-01T01:48:16.714Z,4.70
2017-09-01T01:50:46.349Z,5.73
2017-09-01T01:56:11.355Z,7.53
2017-09-01T01:58:41.263Z,6.67
2017-09-01T02:01:10.880Z,6.20
2017-09-01T02:03:40.452Z,5.33
2017-09-01T02:06:10.102Z,4.83
2017-09-01T02:08:39.717Z,5.30
2017-09-01T02:11:09.350Z,4.20
2017-09-01T02:13:39.047Z,5.40
2017-09-01T02:16:08.686Z,4.70
2017-09-01T02:18:38.557Z,5.00
2017-09-01T02:21:17.877Z,4.73
2017-09-01T02:23:47.439Z,3.63
2017-09-01T02:26:17.080Z,3.90
2017-09-01T02:28:46.655Z,4.10
2017-09-01T02:34:11.690Z,3.43
2017-09-01T02:39:35.885Z,2.70
2017-09-01T02:42:05.482Z,2.30
2017-09-01T02:47:30.670Z,1.90
2017-09-01T02:50:00.249Z,2.50
2017-09-01T02:52:29.890Z,2.50
2017-09-01T02:54:59.482Z,2.50
2017-09-01T02:57:29.129Z,1.93
2017-09-01T02:59:58.718Z,2.50
2017-09-01T03:02:28.367Z,2.70
2017-09-01T03:04:57.932Z,2.70
2017-09-01T03:07:27.590Z,3.60
2017-09-01T03:09:57.171Z,3.20
2017-09-01T03:12:26.822Z,2.80
2017-09-01T03:14:56.445Z,3.33
2017-09-01T03:17:26.049Z,3.23
2017-09-01T03:19:55.696Z,2.80
2017-09-01T03:22:25.269Z,2.70
2017-09-01T03:24:54.878Z,3.90
2017-09-01T03:30:19.363Z,2.93
2017-09-01T03:32:48.944Z,3.23
2017-09-01T03:35:18.559Z,3.03
2017-09-01T03:37:48.132Z,3.23
2017-09-01T03:40:18.425Z,3.20
2017-09-01T03:42:48.141Z,4.00
2017-09-01T03:45:17.758Z,3.60
2017-09-01T03:47:47.339Z,3.23
2017-09-01T03:50:16.956Z,3.00
2017-09-01T03:52:46.529Z,2.77
2017-09-01T03:55:16.146Z,3.73
2017-09-01T03:57:45.709Z,3.33
2017-09-01T04:00:15.363Z,3.77
2017-09-01T04:02:44.954Z,3.10
2017-09-01T04:05:14.627Z,3.17
2017-09-01T04:07:44.234Z,2.60
2017-09-01T04:10:13.903Z,2.60
2017-09-01T04:15:38.271Z,2.50
2017-09-01T04:18:07.840Z,3.00
2017-09-01T04:20:37.494Z,3.77
2017-09-01T04:23:07.075Z,3.17
2017-09-01T04:25:36.727Z,2.70
2017-09-01T04:28:06.305Z,2.53
2017-09-01T04:30:35.976Z,2.53
2017-09-01T04:33:05.587Z,3.27
2017-09-01T04:35:35.240Z,2.73
2017-09-01T04:38:05.102Z,3.40
2017-09-01T04:46:24.813Z,3.27
2017-09-01T04:48:54.463Z,2.57
2017-09-01T04:54:18.745Z,3.10
2017-09-01T04:56:48.355Z,3.50
2017-09-01T04:59:17.921Z,4.47
2017-09-01T05:01:47.568Z,3.97
2017-09-01T05:04:17.142Z,4.00
2017-09-01T05:06:46.776Z,3.67
2017-09-01T05:09:16.358Z,3.20
2017-09-01T05:11:46.007Z,3.83
2017-09-01T05:14:16.202Z,4.50
2017-09-01T05:16:45.808Z,4.13
2017-09-01T05:22:10.259Z,4.83
2017-09-01T05:24:39.850Z,4.37
2017-09-01T05:27:09.488Z,5.03
2017-09-01T05:29:39.079Z,3.93
2017-09-01T05:32:08.704Z,4.30
2017-09-01T05:37:33.232Z,4.97
2017-09-01T05:43:17.544Z,4.27
2017-09-01T05:51:42.439Z,4.30
2017-09-01T06:05:50.780Z,4.97
2017-09-01T06:08:20.372Z,6.97
2017-09-01T06:25:21.120Z,5.33
2017-09-01T06:39:30.941Z,7.57
2017-09-01T06:42:19.504Z,8.47
2017-09-01T06:59:21.750Z,4.63
2017-09-01T07:02:03.839Z,6.93
2017-09-01T07:22:01.877Z,2.90
2017-09-01T07:27:26.962Z,3.80
2017-09-01T07:30:17.496Z,2.47
2017-09-01T07:41:51.079Z,3.33
2017-09-01T07:44:20.661Z,3.37
2017-09-01T07:49:45.332Z,2.67
2017-09-01T07:52:14.917Z,3.20
2017-09-01T07:57:39.287Z,2.80
2017-09-01T08:05:58.539Z,4.50
2017-09-01T08:08:28.127Z,4.07
2017-09-01T08:10:57.710Z,3.23
2017-09-01T08:13:27.366Z,3.37
2017-09-01T08:15:56.941Z,2.67
2017-09-01T08:18:26.583Z,3.63
2017-09-01T08:20:56.168Z,3.57
2017-09-01T08:23:25.809Z,4.47
2017-09-01T08:25:55.418Z,3.60
2017-09-01T08:28:25.052Z,3.83
2017-09-01T08:30:54.669Z,4.20
2017-09-01T08:33:24.304Z,4.17
2017-09-01T08:41:43.939Z,2.70
2017-09-01T08:44:13.534Z,3.00
2017-09-01T08:46:43.187Z,2.77
2017-09-01T08:49:12.778Z,2.93
2017-09-01T08:51:42.429Z,2.90
2017-09-01T08:54:12.041Z,2.53
2017-09-01T08:56:41.712Z,2.40
2017-09-01T08:59:11.398Z,2.77
2017-09-01T09:01:41.005Z,3.10
2017-09-01T09:10:00.534Z,2.40
2017-09-01T09:12:30.135Z,2.80
2017-09-01T09:14:59.766Z,2.73
2017-09-01T09:17:29.373Z,2.77
2017-09-01T09:25:49.232Z,3.10
2017-09-01T09:28:18.839Z,2.43
2017-09-01T09:30:48.492Z,3.90
2017-09-01T09:33:18.092Z,3.33
2017-09-01T09:38:42.844Z,2.90
2017-09-01T09:41:12.552Z,4.90
2017-09-01T09:43:42.161Z,3.20
2017-09-01T09:49:06.753Z,2.53
2017-09-01T09:51:36.334Z,2.97
2017-09-01T09:54:06.069Z,3.23
2017-09-01T09:56:36.484Z,4.57
2017-09-01T09:59:06.163Z,3.00
2017-09-01T10:01:35.759Z,2.83
2017-09-01T10:04:05.417Z,3.50
2017-09-01T10:06:35.010Z,4.60
2017-09-01T10:09:04.659Z,2.90
2017-09-01T10:11:34.250Z,3.20
2017-09-01T10:14:03.913Z,3.10
2017-09-01T10:28:20.232Z,2.40
2017-09-01T10:36:39.640Z,3.50
2017-09-01T10:39:09.229Z,2.93
2017-09-01T10:50:34.583Z,2.57
2017-09-01T10:56:10.706Z,2.27
2017-09-01T10:58:40.286Z,4.40
2017-09-01T11:01:09.915Z,3.00
2017-09-01T11:03:39.576Z,2.87
2017-09-01T11:06:09.156Z,3.30
2017-09-01T11:08:38.828Z,2.70
2017-09-01T11:14:03.261Z,3.13
2017-09-01T11:16:32.846Z,2.50
2017-09-01T11:19:17.378Z,2.70
2017-09-01T11:21:52.645Z,2.20
2017-09-01T11:30:17.967Z,2.30
2017-09-01T11:32:49.887Z,2.80
2017-09-01T11:35:20.078Z,2.20
2017-09-01T11:37:49.666Z,3.13
2017-09-01T11:40:19.311Z,2.27
2017-09-01T11:54:28.577Z,2.27
2017-09-01T11:59:53.072Z,2.50
2017-09-01T12:19:47.807Z,2.70
2017-09-01T12:22:18.788Z,2.30
2017-09-01T12:30:58.668Z,2.10
2017-09-01T12:42:12.792Z,2.20
2017-09-01T12:56:21.224Z,2.00
2017-09-01T12:59:09.708Z,2.20
2017-09-01T13:01:39.344Z,2.37
2017-09-01T13:07:03.772Z,2.00
2017-09-01T13:09:33.361Z,2.93
2017-09-01T13:12:02.950Z,2.30
2017-09-01T13:14:32.583Z,2.40
2017-09-01T13:17:17.826Z,2.00
2017-09-01T13:22:42.338Z,2.57
2017-09-01T13:25:11.928Z,3.33
2017-09-01T13:27:41.518Z,2.50
2017-09-01T13:36:00.504Z,2.27
2017-09-01T13:38:30.090Z,2.43
2017-09-01T13:40:59.723Z,2.57
2017-09-01T13:43:45.618Z,2.20
2017-09-01T13:46:17.077Z,2.33
2017-09-01T13:54:36.413Z,2.10
2017-09-01T13:57:12.810Z,2.03
2017-09-01T14:02:37.313Z,2.00
2017-09-01T14:05:12.875Z,1.90
2017-09-01T14:07:42.521Z,1.83
2017-09-01T14:10:18.901Z,2.33
2017-09-01T14:13:12.099Z,1.80
2017-09-01T14:28:51.421Z,1.93
2017-09-01T14:31:21.823Z,2.23
2017-09-01T14:33:51.509Z,1.90
2017-09-01T14:36:21.137Z,2.10
2017-09-01T14:38:51.176Z,1.97
2017-09-01T14:41:20.753Z,2.40
2017-09-01T14:46:45.437Z,2.30
2017-09-01T14:52:09.744Z,2.20
2017-09-01T14:54:40.185Z,2.30
2017-09-01T15:00:04.861Z,2.37
2017-09-01T15:02:34.458Z,2.40
2017-09-01T15:05:04.040Z,2.47
2017-09-01T15:07:33.661Z,1.87
2017-09-01T15:10:18.047Z,2.00
2017-09-01T15:16:22.604Z,2.60
2017-09-01T15:19:11.679Z,2.67
2017-09-01T15:21:41.304Z,1.77
2017-09-01T15:24:18.386Z,2.57
2017-09-01T15:26:49.260Z,2.30
2017-09-01T15:29:18.869Z,2.63
2017-09-01T15:31:48.447Z,2.47
2017-09-01T15:34:18.073Z,2.97
2017-09-01T15:36:47.676Z,2.13
2017-09-01T15:39:17.313Z,2.47
2017-09-01T15:41:47.306Z,2.93
2017-09-01T15:44:16.947Z,2.87
2017-09-01T15:46:46.641Z,2.40
2017-09-01T15:49:16.239Z,2.90
2017-09-01T15:54:40.814Z,3.50
2017-09-01T15:57:13.456Z,3.60
2017-09-01T16:02:37.804Z,3.27
2017-09-01T16:08:14.366Z,3.40
2017-09-01T16:10:43.948Z,3.13
2017-09-01T16:13:13.531Z,4.10
2017-09-01T16:18:37.717Z,3.33
2017-09-01T16:24:02.017Z,3.47
2017-09-01T16:32:24.572Z,3.20
2017-09-01T16:35:14.167Z,3.57
2017-09-01T16:40:38.554Z,4.03
2017-09-01T16:46:02.942Z,4.50
2017-09-01T16:48:32.537Z,2.30
2017-09-01T16:51:02.187Z,3.20
2017-09-01T16:56:26.804Z,2.30
2017-09-01T16:59:12.749Z,2.50
2017-09-01T17:04:36.933Z,2.30
2017-09-01T17:07:06.515Z,2.67
2017-09-01T17:09:36.086Z,2.40
2017-09-01T17:12:12.512Z,3.10
2017-09-01T17:14:42.119Z,2.60
2017-09-01T17:20:12.550Z,2.70
2017-09-01T17:22:42.157Z,3.00
2017-09-01T17:25:13.216Z,2.53
2017-09-01T17:30:37.368Z,2.53
2017-09-01T17:33:12.773Z,2.50
2017-09-01T17:38:37.241Z,3.13
2017-09-01T17:41:12.556Z,2.97
2017-09-01T17:49:32.068Z,2.63
2017-09-01T17:52:01.638Z,3.27
2017-09-01T17:54:31.252Z,2.60
2017-09-01T17:57:00.854Z,2.97
2017-09-01T18:05:19.701Z,3.43
2017-09-01T18:07:49.288Z,3.17
2017-09-01T18:10:18.887Z,3.60
2017-09-01T18:12:48.782Z,3.77
2017-09-01T18:15:19.303Z,3.40
2017-09-01T18:17:49.580Z,3.10
2017-09-01T18:20:19.169Z,4.00
2017-09-01T18:22:48.746Z,2.90
2017-09-01T18:25:18.572Z,3.00
2017-09-01T18:28:11.817Z,3.03
2017-09-01T18:30:41.429Z,3.07
2017-09-01T18:33:11.010Z,2.83
2017-09-01T18:35:40.588Z,3.13
2017-09-01T18:38:10.513Z,3.13
2017-09-01T18:40:40.106Z,2.80
2017-09-01T18:43:09.759Z,3.60
2017-09-01T18:45:39.349Z,2.93
2017-09-01T18:48:08.927Z,3.03
2017-09-01T18:50:38.565Z,3.33
2017-09-01T18:53:14.284Z,3.20
2017-09-01T18:55:43.907Z,3.83
2017-09-01T18:58:13.507Z,3.50
2017-09-01T19:00:43.080Z,2.77
2017-09-01T19:03:12.751Z,3.30
2017-09-01T19:05:42.352Z,4.13
2017-09-01T19:08:11.999Z,3.27
2017-09-01T19:13:37.025Z,3.13
2017-09-01T19:16:06.662Z,2.80
2017-09-01T19:18:36.244Z,2.90
2017-09-01T19:21:05.906Z,3.80
2017-09-01T19:23:35.481Z,3.37
2017-09-01T19:26:12.914Z,3.17
2017-09-01T19:31:37.964Z,3.40
2017-09-01T19:34:14.228Z,3.93
2017-09-01T19:39:38.912Z,5.03
2017-09-01T19:42:14.407Z,5.60
2017-09-01T19:44:44.041Z,5.63
2017-09-01T19:47:13.797Z,6.37
2017-09-01T19:58:27.924Z,7.80
2017-09-01T20:00:57.511Z,7.00
2017-09-01T20:03:27.152Z,7.57
2017-09-01T20:05:56.748Z,7.50
2017-09-01T20:08:26.338Z,7.90
2017-09-01T20:10:55.995Z,7.90
2017-09-01T20:13:25.590Z,6.50
2017-09-01T20:15:55.174Z,6.83
2017-09-01T20:18:24.805Z,7.00
2017-09-01T20:21:14.183Z,7.47
2017-09-01T20:23:43.860Z,5.80
2017-09-01T20:26:13.428Z,5.37
2017-09-01T20:28:43.026Z,5.57
2017-09-01T20:31:12.663Z,5.90
2017-09-01T20:33:42.250Z,6.53
2017-09-01T20:36:15.099Z,6.70
2017-09-01T20:38:44.752Z,7.80
2017-09-01T20:41:14.336Z,5.70
2017-09-01T20:43:44.105Z,6.40
2017-09-01T20:46:13.686Z,6.57
2017-09-01T20:48:43.305Z,6.03
2017-09-01T20:51:12.961Z,6.13
2017-09-01T20:53:42.593Z,6.30
2017-09-01T20:56:12.192Z,5.30
2017-09-01T20:58:41.827Z,5.33
2017-09-01T21:01:11.417Z,5.43
2017-09-01T21:06:35.849Z,4.47
2017-09-01T21:09:05.464Z,3.63
2017-09-01T21:14:30.598Z,3.87
2017-09-01T21:17:00.177Z,4.07
2017-09-01T21:19:29.754Z,5.40
2017-09-01T21:21:59.381Z,4.50
2017-09-01T21:24:28.981Z,4.67
2017-09-01T21:26:58.631Z,4.07
2017-09-01T21:29:28.210Z,3.80
2017-09-01T21:31:57.790Z,4.50
2017-09-01T21:34:27.407Z,4.63
2017-09-01T21:36:57.000Z,3.80
2017-09-01T21:39:26.573Z,5.00
2017-09-01T21:41:56.176Z,4.63
2017-09-01T21:44:25.751Z,5.30
2017-09-01T21:46:55.477Z,5.30
2017-09-01T21:49:25.054Z,4.93
2017-09-01T21:51:54.635Z,5.90
2017-09-01T21:54:24.292Z,5.97
2017-09-01T21:56:53.875Z,6.07
2017-09-01T21:59:23.453Z,5.53
2017-09-01T22:01:53.072Z,6.37
2017-09-01T22:04:22.649Z,6.37
2017-09-01T22:06:52.249Z,5.80
2017-09-01T22:09:42.747Z,5.10
2017-09-01T22:12:12.387Z,6.03
2017-09-01T22:14:41.968Z,5.37
2017-09-01T22:17:11.542Z,5.30
2017-09-01T22:19:41.163Z,6.07
2017-09-01T22:30:55.422Z,4.40
2017-09-01T22:33:25.010Z,3.90
2017-09-01T22:35:54.603Z,3.67
2017-09-01T22:38:24.248Z,3.17
2017-09-01T22:40:53.860Z,3.50
2017-09-01T22:43:23.485Z,2.93
2017-09-01T22:45:53.076Z,3.00
2017-09-01T22:48:22.658Z,2.90
2017-09-01T22:53:47.585Z,3.20
2017-09-01T22:59:12.166Z,3.83
2017-09-01T23:01:41.737Z,3.13
2017-09-01T23:07:06.520Z,3.27
2017-09-01T23:09:36.093Z,2.60
2017-09-01T23:12:05.673Z,3.00
2017-09-01T23:14:35.293Z,2.37
2017-09-01T23:17:04.899Z,2.03
2017-09-01T23:19:34.532Z,2.33
2017-09-01T23:22:04.123Z,3.00
2017-09-01T23:27:28.232Z,2.60
2017-09-01T23:29:57.811Z,2.70
2017-09-01T23:35:22.474Z,3.50
2017-09-01T23:37:52.045Z,2.83
2017-09-01T23:40:21.649Z,2.40
2017-09-01T23:42:51.227Z,2.90
2017-09-01T23:45:20.795Z,2.60
2017-09-01T23:50:45.100Z,3.33
2017-09-01T23:56:09.277Z,2.70
2017-09-01T23:58:38.853Z,3.40
